Time;durP1;ratioP1;P1;durP2;ratioP2;P2;SDS_P1;SDS_P2;PMS_P1;PMS_P2;Temp;Humidity;BMP_temperature;BMP_pressure;BME280_temperature;BME280_humidity;BME280_pressure;Samples;Min_cycle;Max_cycle;Signal;HPM_P1;HPM_P2
2023/06/15 00:02:22;;;;;;;3.55;1.08;;;;;;;21.50;53.65;101466.94;7363909;19;20089;-62
2023/06/15 00:05:07;;;;;;;3.95;1.02;;;;;;;21.49;53.88;101469.81;7364078;19;21852;-62
2023/06/15 00:07:43;;;;;;;3.38;1.00;;;;;;;21.43;53.89;101473.38;7363733;19;20665;-61
2023/06/15 00:10:11;;;;;;;7.68;1.15;;;;;;;21.36;54.43;101467.19;7365426;19;20472;-62
2023/06/15 00:12:38;;;;;;;5.03;1.35;;;;;;;21.31;54.36;101481.19;7362586;19;20018;-62
2023/06/15 00:15:06;;;;;;;4.05;1.30;;;;;;;21.27;54.81;101478.13;7359819;19;20094;-62
2023/06/15 00:17:37;;;;;;;3.58;1.30;;;;;;;21.25;54.40;101484.69;7362594;19;20023;-62
2023/06/15 00:20:08;;;;;;;3.65;1.20;;;;;;;21.18;55.19;101481.22;7365899;19;20023;-61
2023/06/15 00:22:38;;;;;;;7.60;1.20;;;;;;;21.13;55.46;101481.78;7364846;19;20440;-63
2023/06/15 00:25:06;;;;;;;6.32;1.20;;;;;;;21.09;55.84;101483.22;7366362;19;20029;-62
2023/06/15 00:27:35;;;;;;;7.10;1.50;;;;;;;21.03;56.25;101483.22;7360653;19;20020;-62
2023/06/15 00:30:05;;;;;;;7.63;1.58;;;;;;;20.97;56.88;101487.56;7365113;19;20638;-61
2023/06/15 00:32:32;;;;;;;11.43;1.48;;;;;;;20.93;56.97;101480.94;7360534;19;20047;-62
2023/06/15 00:34:59;;;;;;;3.92;1.65;;;;;;;20.90;57.57;101487.53;7363837;19;21640;-62
2023/06/15 00:37:26;;;;;;;6.65;2.10;;;;;;;20.83;58.30;101478.66;7362084;19;20082;-62
2023/06/15 00:39:54;;;;;;;3.13;1.38;;;;;;;20.78;58.49;101488.31;7366009;19;20102;-62
2023/06/15 00:42:21;;;;;;;7.50;1.88;;;;;;;20.54;59.77;101488.91;7354635;19;20010;-62
2023/06/15 00:44:48;;;;;;;8.30;1.63;;;;;;;20.50;60.09;101485.81;7364960;19;20048;-62
2023/06/15 00:47:20;;;;;;;6.57;1.58;;;;;;;20.46;60.42;101488.06;7359659;19;20782;-61
2023/06/15 00:49:48;;;;;;;9.68;1.55;;;;;;;20.36;61.05;101486.81;7363841;19;20800;-63
2023/06/15 00:52:17;;;;;;;6.50;1.40;;;;;;;20.33;60.88;101489.84;7363974;19;21765;-62
2023/06/15 00:54:45;;;;;;;6.53;1.45;;;;;;;20.29;61.46;101485.91;7364063;19;20014;-62
2023/06/15 00:57:14;;;;;;;8.80;1.70;;;;;;;20.30;61.60;101484.88;7363324;19;20427;-61
2023/06/15 00:59:42;;;;;;;5.65;1.30;;;;;;;20.29;61.84;101485.91;7363424;19;20021;-62
2023/06/15 01:02:12;;;;;;;5.28;1.30;;;;;;;20.29;62.06;101486.75;7361917;19;20018;-62
2023/06/15 01:04:40;;;;;;;4.15;1.67;;;;;;;20.31;62.43;101483.91;7362947;19;20423;-62
2023/06/15 01:07:10;;;;;;;10.93;2.00;;;;;;;20.32;62.35;101485.53;7362531;19;20051;-62
2023/06/15 01:09:41;;;;;;;6.22;1.40;;;;;;;20.28;63.10;101481.59;7362998;19;20019;-63
2023/06/15 01:12:14;;;;;;;5.63;1.40;;;;;;;20.28;62.96;101478.91;7362291;19;20131;-62
2023/06/15 01:14:41;;;;;;;4.93;1.55;;;;;;;20.26;63.40;101480.97;7360589;19;20034;-62
2023/06/15 01:17:15;;;;;;;4.25;1.77;;;;;;;20.24;64.29;101472.31;7359680;19;20024;-61
2023/06/15 01:19:57;;;;;;;4.10;1.98;;;;;;;20.26;63.93;101480.97;7362171;19;20022;-62
2023/06/15 01:22:34;;;;;;;7.18;1.63;;;;;;;20.30;63.78;101475.03;7362250;19;20494;-63
2023/06/15 01:25:26;;;;;;;3.70;1.25;;;;;;;20.30;64.00;101482.22;7363483;19;20497;-61
2023/06/15 01:28:02;;;;;;;7.53;1.52;;;;;;;20.25;64.04;101479.31;7362823;19;20022;-63
2023/06/15 01:30:33;;;;;;;5.32;1.60;;;;;;;20.23;64.43;101476.00;7362788;19;20015;-63
2023/06/15 01:33:00;;;;;;;8.63;2.03;;;;;;;20.19;64.02;101474.78;7361945;19;20028;-62
2023/06/15 01:35:27;;;;;;;8.25;1.80;;;;;;;20.14;64.31;101479.88;7361440;19;20025;-61
2023/06/15 01:38:03;;;;;;;7.15;1.70;;;;;;;20.13;64.28;101478.22;7361315;19;20042;-63
2023/06/15 01:40:33;;;;;;;5.70;1.75;;;;;;;20.06;64.50;101471.00;7362293;19;20012;-62
2023/06/15 01:43:02;;;;;;;5.50;1.88;;;;;;;20.02;64.63;101469.75;7354946;19;21792;-61
2023/06/15 01:45:30;;;;;;;8.45;1.80;;;;;;;20.02;64.78;101475.09;7361004;19;20022;-62
2023/06/15 01:48:06;;;;;;;5.38;1.98;;;;;;;19.99;65.28;101472.84;7359973;19;20027;-61
2023/06/15 01:50:35;;;;;;;7.88;2.65;;;;;;;19.96;65.50;101475.09;7362319;19;20043;-61
2023/06/15 01:53:03;;;;;;;7.85;2.05;;;;;;;19.87;65.72;101474.41;7358693;19;20015;-62
2023/06/15 01:55:35;;;;;;;4.95;1.67;;;;;;;19.84;65.71;101477.50;7360412;19;20018;-61
2023/06/15 01:58:02;;;;;;;5.27;1.93;;;;;;;19.80;66.17;101473.56;7362111;19;20096;-62
2023/06/15 02:00:29;;;;;;;5.75;2.30;;;;;;;19.76;66.23;101472.28;7362080;19;20022;-60
2023/06/15 02:02:56;;;;;;;8.18;2.00;;;;;;;19.72;66.49;101471.03;7360128;19;20051;-62
2023/06/15 02:05:23;;;;;;;8.10;2.00;;;;;;;19.67;66.87;101478.81;7361510;19;20015;-63
2023/06/15 02:07:52;;;;;;;5.53;1.80;;;;;;;19.62;67.05;101474.06;7360072;19;20082;-61
2023/06/15 02:10:19;;;;;;;7.00;1.90;;;;;;;19.58;67.55;101472.00;7363470;19;20105;-61
2023/06/15 02:12:46;;;;;;;7.95;2.05;;;;;;;19.56;67.52;101474.84;7361194;19;20014;-63
2023/06/15 02:15:13;;;;;;;5.43;1.90;;;;;;;19.55;67.29;101478.56;7362158;19;20018;-61
2023/06/15 02:17:41;;;;;;;5.35;1.75;;;;;;;19.51;67.41;101482.63;7359095;19;20019;-62
2023/06/15 02:20:09;;;;;;;9.77;2.10;;;;;;;19.49;67.57;101478.50;7361773;19;21212;-62
2023/06/15 02:22:36;;;;;;;6.90;2.00;;;;;;;19.45;67.74;101477.25;7359011;19;20010;-62
2023/06/15 02:25:04;;;;;;;6.55;1.90;;;;;;;19.42;67.69;101480.25;7362029;19;20047;-61
2023/06/15 02:27:31;;;;;;;4.68;1.52;;;;;;;19.41;67.61;101481.28;7358754;19;20010;-62
2023/06/15 02:29:58;;;;;;;3.15;1.60;;;;;;;19.39;67.72;101483.34;7362131;19;20039;-62
2023/06/15 02:32:34;;;;;;;7.25;2.08;;;;;;;19.34;67.73;101486.59;7358591;19;20051;-61
2023/06/15 02:35:05;;;;;;;5.22;2.08;;;;;;;19.32;67.99;101490.47;7358614;19;20026;-61
2023/06/15 02:37:32;;;;;;;5.35;1.60;;;;;;;19.31;68.22;101481.63;7362156;19;20925;-62
2023/06/15 02:39:59;;;;;;;5.78;2.05;;;;;;;19.28;68.64;101486.53;7361329;19;20029;-61
2023/06/15 02:42:26;;;;;;;5.45;1.73;;;;;;;19.27;68.53;101487.53;7359846;19;20482;-62
2023/06/15 02:44:53;;;;;;;9.45;2.10;;;;;;;19.29;68.44;101485.50;7352764;19;20789;-61
2023/06/15 02:47:20;;;;;;;5.80;2.30;;;;;;;19.22;68.69;101485.47;7357790;19;20094;-62
2023/06/15 02:49:48;;;;;;;6.97;2.40;;;;;;;19.12;69.17;101491.13;7359862;19;20101;-61
2023/06/15 02:52:15;;;;;;;4.43;1.95;;;;;;;19.09;69.17;101482.69;7362035;19;20190;-62
2023/06/15 02:54:43;;;;;;;7.65;2.15;;;;;;;19.07;69.65;101485.53;7360037;19;20692;-62
2023/06/15 02:57:10;;;;;;;8.52;2.25;;;;;;;19.05;69.51;101479.56;7361643;19;20023;-62
2023/06/15 02:59:37;;;;;;;6.95;2.20;;;;;;;19.05;69.95;101482.22;7360094;19;20015;-61
2023/06/15 03:02:04;;;;;;;7.30;2.03;;;;;;;19.05;69.49;101495.56;7357353;19;20027;-61
2023/06/15 03:04:44;;;;;;;8.45;3.10;;;;;;;18.93;69.91;101489.13;7358879;19;20025;-62
2023/06/15 03:07:16;;;;;;;4.43;2.25;;;;;;;18.89;70.41;101490.53;7364934;19;20021;-62
2023/06/15 03:09:47;;;;;;;3.97;1.77;;;;;;;18.84;70.35;101481.44;7366526;19;20022;-62
2023/06/15 03:12:15;;;;;;;6.38;2.50;;;;;;;18.82;70.42;101484.28;7364750;19;20011;-62
2023/06/15 03:14:50;;;;;;;6.18;2.00;;;;;;;18.82;70.37;101483.44;7367956;19;20018;-62
2023/06/15 03:17:18;;;;;;;7.20;1.88;;;;;;;18.82;70.27;101486.13;7365753;19;20672;-61
2023/06/15 03:19:47;;;;;;;6.53;3.08;;;;;;;18.76;70.67;101485.03;7366840;19;21235;-61
2023/06/15 03:22:14;;;;;;;6.03;2.10;;;;;;;18.69;70.88;101495.63;7366772;19;20022;-62
2023/06/15 03:24:44;;;;;;;7.47;1.98;;;;;;;18.66;71.16;101492.53;7366501;19;20022;-64
2023/06/15 03:27:11;;;;;;;5.55;1.98;;;;;;;18.61;71.41;101494.94;7363982;19;20025;-61
2023/06/15 03:29:39;;;;;;;6.88;1.70;;;;;;;18.55;71.46;101493.00;7366852;19;20010;-62
2023/06/15 03:32:07;;;;;;;6.25;2.00;;;;;;;18.49;72.09;101488.44;7365397;19;20010;-62
2023/06/15 03:34:35;;;;;;;7.20;2.20;;;;;;;18.46;72.05;101494.13;7364834;19;20018;-63
2023/06/15 03:37:03;;;;;;;8.55;2.25;;;;;;;18.32;72.43;101496.63;7365712;19;20026;-61
2023/06/15 03:39:30;;;;;;;5.35;2.10;;;;;;;18.33;72.92;101495.63;7365915;19;20018;-62
2023/06/15 03:41:57;;;;;;;5.68;2.78;;;;;;;18.33;73.04;101492.97;7366281;19;20018;-61
2023/06/15 03:44:24;;;;;;;5.32;2.22;;;;;;;18.28;73.02;101492.69;7362357;19;20053;-61
2023/06/15 03:46:51;;;;;;;8.13;2.17;;;;;;;18.27;73.17;101487.56;7356998;19;20022;-62
2023/06/15 03:49:18;;;;;;;10.48;2.95;;;;;;;18.25;73.38;101495.72;7362853;19;20011;-61
2023/06/15 03:51:45;;;;;;;6.40;2.10;;;;;;;18.25;73.42;101494.88;7366263;19;20722;-61
2023/06/15 03:54:12;;;;;;;8.68;2.28;;;;;;;18.21;73.49;101491.78;7364927;19;20530;-61
2023/06/15 03:56:40;;;;;;;5.50;2.08;;;;;;;18.20;73.78;101503.44;7366616;19;20050;-61
2023/06/15 03:59:07;;;;;;;7.78;2.80;;;;;;;18.15;74.03;101494.34;7366781;19;20019;-62
2023/06/15 04:01:34;;;;;;;8.98;2.15;;;;;;;18.12;74.11;101494.75;7367201;19;20026;-61
2023/06/15 04:04:01;;;;;;;5.85;1.90;;;;;;;18.12;74.40;101497.41;7364565;19;20028;-61
2023/06/15 04:06:29;;;;;;;7.47;2.17;;;;;;;18.10;74.39;101492.25;7366204;19;20019;-62
2023/06/15 04:08:56;;;;;;;4.97;1.92;;;;;;;18.14;74.26;101498.03;7363622;19;20022;-61
2023/06/15 04:11:24;;;;;;;6.75;2.00;;;;;;;18.21;74.02;101497.13;7365099;19;21203;-62
2023/06/15 04:13:51;;;;;;;10.00;2.63;;;;;;;18.26;74.36;101496.56;7362952;19;20070;-62
2023/06/15 04:16:17;;;;;;;9.07;2.35;;;;;;;18.33;73.76;101500.13;7366381;19;21623;-62
2023/06/15 04:18:45;;;;;;;7.40;2.60;;;;;;;18.36;73.16;101497.91;7360856;19;20018;-61
2023/06/15 04:21:12;;;;;;;7.05;2.63;;;;;;;18.38;72.95;101498.56;7366638;19;20071;-62
2023/06/15 04:23:43;;;;;;;6.65;1.70;;;;;;;18.36;72.98;101487.25;7363956;19;20125;-61
2023/06/15 04:26:10;;;;;;;7.35;2.30;;;;;;;18.37;73.55;101496.06;7365729;19;20018;-62
2023/06/15 04:28:37;;;;;;;6.15;2.00;;;;;;;18.35;73.21;101498.91;7363388;19;20021;-67
2023/06/15 04:31:09;;;;;;;6.82;2.40;;;;;;;18.33;73.21;101495.63;7363832;19;20014;-61
2023/06/15 04:33:44;;;;;;;8.48;2.10;;;;;;;18.32;73.33;101496.63;7362756;19;20640;-62
2023/06/15 04:36:12;;;;;;;7.43;2.28;;;;;;;18.29;73.55;101497.00;7362520;19;20022;-62
2023/06/15 04:38:46;;;;;;;6.50;2.17;;;;;;;18.30;73.73;101498.66;7361400;19;20027;-62
2023/06/15 04:41:14;;;;;;;5.22;2.20;;;;;;;18.31;73.67;101492.31;7361433;19;20022;-69
2023/06/15 04:43:41;;;;;;;7.00;1.92;;;;;;;18.33;73.12;101500.13;7361095;19;20704;-62
2023/06/15 04:46:08;;;;;;;6.32;2.00;;;;;;;18.29;73.48;101499.66;7364148;19;20616;-62
2023/06/15 04:48:36;;;;;;;6.07;2.70;;;;;;;18.29;73.22;101496.16;7353054;19;20022;-63
2023/06/15 04:51:04;;;;;;;5.68;2.15;;;;;;;18.31;74.08;101508.31;7363015;19;20018;-62
2023/06/15 04:53:31;;;;;;;6.45;1.80;;;;;;;18.28;73.57;101507.84;7362341;19;20018;-62
2023/06/15 04:55:58;;;;;;;8.95;2.15;;;;;;;18.29;73.89;101512.97;7362413;19;20025;-62
2023/06/15 04:58:25;;;;;;;10.52;2.30;;;;;;;18.33;73.64;101508.13;7361956;19;20018;-61
2023/06/15 05:00:52;;;;;;;7.97;2.40;;;;;;;18.35;73.67;101504.25;7362499;19;20566;-62
2023/06/15 05:03:25;;;;;;;7.18;2.92;;;;;;;18.40;73.53;101506.34;7360364;19;20033;-61
2023/06/15 05:05:52;;;;;;;10.10;2.65;;;;;;;18.43;73.47;101513.16;7357691;19;20934;-64
2023/06/15 05:08:20;;;;;;;7.50;2.22;;;;;;;18.47;72.94;101517.09;7360857;19;20093;-62
2023/06/15 05:10:47;;;;;;;7.20;2.90;;;;;;;18.45;73.26;101519.94;7364679;19;20023;-63
2023/06/15 05:13:22;;;;;;;8.40;3.30;;;;;;;18.41;73.54;101516.00;7361066;19;20132;-62
2023/06/15 05:15:50;;;;;;;7.63;2.92;;;;;;;18.41;73.72;101521.34;7359325;19;20188;-62
2023/06/15 05:18:21;;;;;;;9.02;3.05;;;;;;;18.38;73.38;101517.22;7358692;19;20014;-60
2023/06/15 05:20:48;;;;;;;7.20;2.90;;;;;;;18.41;73.46;101520.50;7360279;19;20015;-62
2023/06/15 05:23:19;;;;;;;7.18;3.33;;;;;;;18.37;73.60;101520.88;7362627;19;20020;-62
2023/06/15 05:25:46;;;;;;;7.50;2.65;;;;;;;18.41;73.47;101515.16;7360871;19;20339;-62
2023/06/15 05:28:14;;;;;;;6.15;2.47;;;;;;;18.45;73.48;101519.94;7358933;19;20015;-62
2023/06/15 05:30:41;;;;;;;12.77;3.05;;;;;;;18.49;73.10;101517.75;7359435;19;20110;-61
2023/06/15 05:33:08;;;;;;;7.30;2.58;;;;;;;18.49;73.37;101523.88;7357079;19;20352;-62
2023/06/15 05:35:35;;;;;;;5.97;2.63;;;;;;;18.49;72.99;101523.88;7360741;19;20018;-61
2023/06/15 05:38:02;;;;;;;8.50;2.85;;;;;;;18.53;72.97;101519.03;7362558;19;20010;-62
2023/06/15 05:40:29;;;;;;;4.78;2.35;;;;;;;18.59;72.90;101526.31;7361020;19;20006;-62
2023/06/15 05:42:56;;;;;;;8.38;2.40;;;;;;;18.59;72.67;101529.75;7360981;19;20117;-61
2023/06/15 05:45:24;;;;;;;10.82;2.70;;;;;;;18.55;72.93;101531.16;7360321;19;20023;-63
2023/06/15 05:47:53;;;;;;;7.78;2.70;;;;;;;18.49;72.93;101525.75;7356307;19;20006;-62
2023/06/15 05:50:20;;;;;;;6.55;2.55;;;;;;;18.48;73.47;101527.59;7360333;19;20097;-64
2023/06/15 05:52:47;;;;;;;8.70;3.30;;;;;;;18.54;73.12;101532.16;7361653;19;20018;-61
2023/06/15 05:55:14;;;;;;;7.07;3.28;;;;;;;18.55;73.20;101531.16;7354081;19;20626;-62
2023/06/15 05:57:42;;;;;;;6.22;2.85;;;;;;;18.47;73.58;101525.91;7360085;19;20371;-62
2023/06/15 06:00:10;;;;;;;10.40;3.15;;;;;;;18.53;73.89;101524.34;7360429;19;20375;-62
2023/06/15 06:02:37;;;;;;;9.23;2.75;;;;;;;18.80;72.65;101535.13;7361199;19;20086;-62
2023/06/15 06:05:04;;;;;;;8.00;3.33;;;;;;;18.91;72.05;101525.81;7362238;19;20315;-61
2023/06/15 06:07:31;;;;;;;8.45;3.47;;;;;;;19.05;71.53;101535.59;7360188;19;20308;-61
2023/06/15 06:09:58;;;;;;;9.25;3.42;;;;;;;19.09;71.18;101530.72;7362851;19;20490;-62
2023/06/15 06:12:25;;;;;;;16.15;4.18;;;;;;;19.31;70.56;101535.00;7360649;19;20025;-62
2023/06/15 06:14:52;;;;;;;10.57;3.25;;;;;;;19.42;70.14;101533.66;7362395;19;20090;-62
2023/06/15 06:17:19;;;;;;;10.80;3.70;;;;;;;19.36;70.25;101534.41;7358689;19;20050;-61
2023/06/15 06:20:07;;;;;;;11.82;2.90;;;;;;;19.32;70.38;101527.81;7360470;19;20023;-62
2023/06/15 06:22:34;;;;;;;10.15;3.13;;;;;;;19.20;71.19;101531.00;7359687;19;20086;-61
2023/06/15 06:25:01;;;;;;;7.32;2.88;;;;;;;19.15;71.46;101536.09;7360491;19;20017;-62
2023/06/15 06:27:28;;;;;;;8.88;3.60;;;;;;;19.12;71.91;101539.16;7358623;19;21768;-61
2023/06/15 06:29:55;;;;;;;9.55;3.17;;;;;;;19.17;71.42;101535.91;7359543;19;20011;-62
2023/06/15 06:32:23;;;;;;;9.55;3.47;;;;;;;19.29;72.00;101542.41;7355339;19;20448;-63
2023/06/15 06:34:50;;;;;;;11.75;3.42;;;;;;;19.49;70.53;101538.06;7358296;19;20471;-63
2023/06/15 06:37:17;;;;;;;9.02;3.25;;;;;;;19.55;69.82;101542.66;7354128;19;20101;-64
2023/06/15 06:39:44;;;;;;;8.88;3.20;;;;;;;19.57;70.20;101540.59;7360362;19;21344;-62
2023/06/15 06:42:11;;;;;;;11.05;3.03;;;;;;;19.70;69.93;101539.88;7364197;19;20007;-62
2023/06/15 06:44:38;;;;;;;10.73;2.95;;;;;;;19.94;68.53;101551.94;7367494;19;20025;-61
2023/06/15 06:47:06;;;;;;;8.85;3.40;;;;;;;19.94;68.56;101546.59;7362088;19;20014;-69
2023/06/15 06:49:33;;;;;;;12.18;4.07;;;;;;;19.69;69.51;101548.06;7363360;19;20110;-62
2023/06/15 06:52:00;;;;;;;9.07;3.67;;;;;;;19.64;69.94;101541.47;7363778;19;20010;-62
2023/06/15 06:54:27;;;;;;;8.85;3.45;;;;;;;19.57;70.08;101545.94;7368008;19;20049;-63
2023/06/15 06:56:54;;;;;;;8.50;3.67;;;;;;;19.57;70.58;101551.28;7364601;19;20010;-62
2023/06/15 06:59:22;;;;;;;12.50;3.67;;;;;;;19.54;70.51;101557.00;7366443;19;20002;-61
2023/06/15 07:02:08;;;;;;;9.45;3.47;;;;;;;19.51;70.59;101551.22;7364743;19;20014;-61
2023/06/15 07:04:39;;;;;;;6.35;3.03;;;;;;;19.48;70.81;101549.75;7357514;19;20090;-62
2023/06/15 07:07:07;;;;;;;8.27;3.20;;;;;;;19.49;70.85;101559.44;7362623;19;20033;-63
2023/06/15 07:09:34;;;;;;;11.48;3.10;;;;;;;19.52;71.01;101560.88;7363661;19;20033;-63
2023/06/15 07:12:02;;;;;;;10.77;2.80;;;;;;;19.51;70.77;101560.03;7367156;19;20019;-63
2023/06/15 07:14:34;;;;;;;6.47;3.10;;;;;;;19.45;71.08;101552.84;7364953;19;20009;-62
2023/06/15 07:17:01;;;;;;;9.40;3.78;;;;;;;19.51;71.22;101556.53;7364604;19;20029;-63
2023/06/15 07:19:29;;;;;;;10.05;2.92;;;;;;;19.59;71.45;101556.44;7363548;19;20050;-63
2023/06/15 07:21:56;;;;;;;10.93;3.40;;;;;;;19.63;71.29;101555.84;7363453;19;20014;-62
2023/06/15 07:24:23;;;;;;;10.15;3.33;;;;;;;19.67;71.04;101566.13;7361991;19;20014;-61
2023/06/15 07:26:51;;;;;;;12.80;3.60;;;;;;;19.75;70.99;101572.16;7362494;19;20019;-62
2023/06/15 07:29:19;;;;;;;10.00;2.95;;;;;;;19.81;70.84;101584.72;7360651;19;20921;-62
2023/06/15 07:31:46;;;;;;;10.40;3.15;;;;;;;19.97;69.97;101581.75;7366439;19;20010;-63
2023/06/15 07:34:16;;;;;;;7.43;2.50;;;;;;;20.10;69.41;101570.34;7363915;19;20022;-63
2023/06/15 07:36:44;;;;;;;9.05;2.92;;;;;;;20.33;69.46;101578.91;7366508;19;20018;-61
2023/06/15 07:39:13;;;;;;;8.00;3.03;;;;;;;20.69;67.78;101573.31;7355942;19;20468;-62
2023/06/15 07:41:44;;;;;;;14.35;3.13;;;;;;;21.35;66.34;101578.81;7353257;19;20113;-62
2023/06/15 07:44:14;;;;;;;8.27;2.90;;;;;;;22.82;61.06;101579.97;7357262;19;20006;-63
2023/06/15 07:46:49;;;;;;;10.73;3.05;;;;;;;23.97;57.49;101586.78;7358088;19;20874;-62
2023/06/15 07:49:17;;;;;;;10.88;2.53;;;;;;;24.26;55.84;101582.56;7354031;19;20018;-62
2023/06/15 07:51:58;;;;;;;7.68;1.90;;;;;;;24.21;56.10;101595.88;7355751;19;20942;-61
2023/06/15 07:54:41;;;;;;;6.03;2.40;;;;;;;24.23;55.07;101583.00;7357442;19;20439;-62
2023/06/15 07:57:11;;;;;;;4.45;2.13;;;;;;;24.08;55.75;101582.50;7353755;19;20921;-61
2023/06/15 07:59:38;;;;;;;8.68;2.15;;;;;;;23.75;57.32;101578.31;7361803;19;20173;-62
2023/06/15 08:02:15;;;;;;;10.25;2.65;;;;;;;23.56;57.59;101578.47;7361953;19;20121;-64
2023/06/15 08:04:49;;;;;;;8.82;2.58;;;;;;;23.33;58.30;101579.03;7362219;19;20868;-63
2023/06/15 08:07:30;;;;;;;5.63;1.88;;;;;;;23.12;58.46;101587.44;7361695;19;20506;-62
2023/06/15 08:09:59;;;;;;;6.75;2.17;;;;;;;22.78;59.68;101586.81;7353125;19;20006;-63
2023/06/15 08:12:34;;;;;;;7.95;2.08;;;;;;;22.55;60.85;101589.19;7355862;19;20022;-63
2023/06/15 08:15:08;;;;;;;8.60;2.60;;;;;;;22.49;61.23;101585.50;7366873;19;20022;-62
2023/06/15 08:20:47;;;;;;;7.25;2.22;;;;;;;22.63;60.10;101588.09;7355733;19;20018;-62
2023/06/15 08:23:25;;;;;;;7.97;2.10;;;;;;;22.68;60.68;101580.25;7361378;19;20029;-61
2023/06/15 08:26:12;;;;;;;7.10;1.92;;;;;;;22.54;60.40;101593.72;7360063;19;20018;-61
2023/06/15 08:28:43;;;;;;;8.73;1.85;;;;;;;22.59;61.05;101588.53;7358305;19;20561;-61
2023/06/15 08:31:19;;;;;;;10.85;2.05;;;;;;;23.21;58.57;101581.59;7357947;19;20651;-62
2023/06/15 08:33:59;;;;;;;8.32;1.80;;;;;;;24.03;55.91;101585.88;7358276;19;20015;-62
2023/06/15 08:36:38;;;;;;;7.80;2.20;;;;;;;24.34;54.21;101584.13;7360288;19;20015;-64
2023/06/15 08:39:26;;;;;;;12.13;2.60;;;;;;;23.96;55.34;101584.31;7355932;19;20102;-61
2023/06/15 08:41:55;;;;;;;5.22;2.15;;;;;;;23.53;56.29;101593.16;7353127;19;20015;-61
2023/06/15 08:44:28;;;;;;;6.28;1.52;;;;;;;23.53;57.39;101581.59;7359682;19;20035;-61
2023/06/15 08:47:03;;;;;;;6.70;1.83;;;;;;;23.53;56.98;101578.91;7359534;19;20014;-62
2023/06/15 08:49:52;;;;;;;5.18;1.90;;;;;;;23.46;57.80;101587.03;7360127;19;20123;-62
2023/06/15 08:52:24;;;;;;;5.45;1.80;;;;;;;23.56;57.21;101591.91;7363534;19;20942;-61
2023/06/15 08:55:15;;;;;;;8.23;2.20;;;;;;;23.56;56.75;101584.69;7363406;19;20051;-62
2023/06/15 08:58:22;;;;;;;5.30;2.20;;;;;;;23.26;57.70;101572.91;7360984;19;20019;-61
2023/06/15 09:01:08;;;;;;;8.23;2.47;;;;;;;22.73;58.97;101578.59;7362488;19;20086;-61
2023/06/15 09:03:50;;;;;;;8.07;2.13;;;;;;;22.64;59.79;101587.06;7360034;19;20654;-61
2023/06/15 09:06:27;;;;;;;8.30;2.20;;;;;;;22.72;59.37;101576.94;7363498;19;21745;-62
2023/06/15 09:09:10;;;;;;;6.15;2.08;;;;;;;23.07;59.62;101580.03;7363087;19;20035;-62
2023/06/15 09:11:48;;;;;;;8.32;1.67;;;;;;;23.44;58.02;101575.66;7362061;19;20018;-61
2023/06/15 09:14:39;;;;;;;8.55;1.70;;;;;;;23.51;58.01;101575.63;7360992;19;20011;-62
2023/06/15 09:17:36;;;;;;;10.60;1.95;;;;;;;23.46;57.72;101570.91;7354743;19;20014;-62
2023/06/15 09:20:31;;;;;;;6.65;2.08;;;;;;;23.47;56.69;101582.50;7361192;19;20030;-61
2023/06/15 09:23:26;;;;;;;6.95;1.77;;;;;;;23.48;56.51;101586.81;7364062;19;20502;-62
2023/06/15 09:29:03;;;;;;;4.80;2.05;;;;;;;23.29;56.31;101581.34;7359839;19;20078;-62
2023/06/15 09:31:47;;;;;;;8.38;2.40;;;;;;;23.33;56.96;101576.34;7363758;19;20081;-62
2023/06/15 09:34:25;;;;;;;5.93;2.33;;;;;;;23.34;57.78;101583.38;7361488;19;20913;-63
2023/06/15 09:37:18;;;;;;;10.80;1.73;;;;;;;23.39;57.65;101578.16;7362614;19;20057;-62
2023/06/15 09:40:14;;;;;;;5.20;1.88;;;;;;;23.49;56.84;101580.38;7362914;19;20038;-62
2023/06/15 09:42:55;;;;;;;11.75;2.10;;;;;;;23.63;55.32;101579.22;7363319;19;20407;-63
2023/06/15 09:45:40;;;;;;;7.93;2.00;;;;;;;23.66;54.99;101579.63;7362576;19;20021;-62
2023/06/15 09:48:14;;;;;;;8.15;1.75;;;;;;;23.63;54.49;101584.59;7356562;19;20010;-63
2023/06/15 09:51:02;;;;;;;4.85;1.15;;;;;;;23.65;51.56;101588.72;7361943;19;20025;-62
2023/06/15 09:56:35;;;;;;;4.50;1.23;;;;;;;23.68;52.09;101587.47;7360714;19;20098;-62
2023/06/15 09:59:24;;;;;;;6.35;1.42;;;;;;;23.75;52.46;101582.84;7361372;19;20018;-62
2023/06/15 10:02:03;;;;;;;4.07;1.50;;;;;;;23.85;53.00;101589.38;7360963;19;20118;-62
2023/06/15 10:04:42;;;;;;;4.55;1.58;;;;;;;24.01;53.06;101587.16;7360636;19;20027;-62
2023/06/15 10:07:12;;;;;;;4.13;1.48;;;;;;;24.13;52.00;101572.72;7362333;19;20014;-62
2023/06/15 10:09:46;;;;;;;7.22;1.30;;;;;;;24.21;51.88;101577.03;7359384;19;20352;-62
2023/06/15 10:12:17;;;;;;;12.18;2.92;;;;;;;24.45;51.38;101580.69;7363120;19;20031;-62
2023/06/15 10:14:58;;;;;;;10.35;1.63;;;;;;;24.58;51.18;101583.22;7361320;19;20043;-62
2023/06/15 10:17:33;;;;;;;4.75;1.40;;;;;;;24.58;48.90;101584.00;7360463;19;20064;-62
2023/06/15 10:20:07;;;;;;;5.07;1.63;;;;;;;24.66;49.93;101588.28;7354012;19;20015;-63
2023/06/15 10:22:46;;;;;;;8.77;1.75;;;;;;;24.65;50.60;101583.94;7362058;19;20041;-62
2023/06/15 10:25:14;;;;;;;10.00;2.35;;;;;;;24.64;51.31;101584.97;7361694;19;20010;-61
2023/06/15 10:27:44;;;;;;;7.18;2.30;;;;;;;24.75;49.93;101597.69;7360086;19;20662;-62
2023/06/15 10:30:31;;;;;;;7.53;2.10;;;;;;;24.83;49.94;101578.53;7359868;19;20870;-62
2023/06/15 10:33:16;;;;;;;5.28;1.90;;;;;;;24.82;48.79;101574.19;7359157;19;20074;-62
2023/06/15 10:36:10;;;;;;;7.05;1.70;;;;;;;24.92;47.26;101573.66;7361909;19;20364;-62
2023/06/15 10:38:47;;;;;;;6.47;1.58;;;;;;;24.99;48.07;101577.91;7360883;19;20015;-63
2023/06/15 10:41:16;;;;;;;6.07;1.23;;;;;;;25.04;48.03;101572.63;7361457;19;20014;-61
2023/06/15 10:43:57;;;;;;;7.65;1.17;;;;;;;25.13;47.58;101567.75;7358029;19;20834;-62
2023/06/15 10:46:30;;;;;;;25.83;3.05;;;;;;;25.18;48.33;101567.91;7359474;19;20032;-63
2023/06/15 10:49:09;;;;;;;7.25;1.73;;;;;;;25.01;48.69;101564.22;7360452;19;20025;-62
2023/06/15 10:51:49;;;;;;;7.00;1.95;;;;;;;25.04;48.80;101561.88;7363576;19;20022;-62
2023/06/15 10:54:27;;;;;;;10.27;2.13;;;;;;;25.11;47.52;101559.09;7362096;19;20022;-62
2023/06/15 10:56:55;;;;;;;7.10;1.40;;;;;;;25.14;47.99;101559.44;7357651;19;20494;-62
2023/06/15 10:59:36;;;;;;;5.85;1.50;;;;;;;25.25;45.62;101565.06;7359301;19;20014;-62
2023/06/15 11:02:33;;;;;;;4.22;1.05;;;;;;;25.30;43.55;101566.03;7361786;19;20023;-62
2023/06/15 11:05:10;;;;;;;6.38;1.40;;;;;;;25.29;43.08;101566.28;7360402;19;20014;-63
2023/06/15 11:07:41;;;;;;;3.47;0.98;;;;;;;25.22;42.23;101562.84;7360738;19;20018;-63
2023/06/15 11:10:10;;;;;;;5.75;1.35;;;;;;;25.14;42.47;101558.63;7361827;19;20026;-61
2023/06/15 11:12:40;;;;;;;10.05;1.60;;;;;;;25.11;44.29;101561.78;7360509;19;21279;-62
2023/06/15 11:15:10;;;;;;;5.05;1.83;;;;;;;25.14;44.06;101562.13;7362910;19;20021;-62
2023/06/15 11:17:58;;;;;;;6.28;1.50;;;;;;;25.21;44.00;101550.44;7358014;19;21011;-62
2023/06/15 11:20:39;;;;;;;3.63;1.25;;;;;;;25.23;43.65;101548.34;7361344;19;20149;-62
2023/06/15 11:23:18;;;;;;;4.60;1.30;;;;;;;25.31;42.61;101546.13;7361233;19;20575;-62
2023/06/15 11:25:50;;;;;;;6.57;1.65;;;;;;;25.42;41.31;101553.41;7351352;19;20022;-64
2023/06/15 11:28:22;;;;;;;2.65;1.15;;;;;;;25.55;40.58;101553.19;7364584;19;20010;-63
2023/06/15 11:31:06;;;;;;;6.30;0.90;;;;;;;25.63;40.86;101548.50;7368304;19;20018;-63
2023/06/15 11:33:36;;;;;;;4.25;1.20;;;;;;;25.74;39.97;101543.13;7362278;19;20018;-63
2023/06/15 11:36:06;;;;;;;3.10;1.27;;;;;;;25.74;40.15;101547.69;7369029;19;20141;-61
2023/06/15 11:38:36;;;;;;;3.95;1.08;;;;;;;25.83;40.52;101548.97;7369280;19;20024;-62
2023/06/15 11:41:07;;;;;;;5.47;1.20;;;;;;;25.91;41.81;101549.44;7369925;19;20507;-62
2023/06/15 11:43:40;;;;;;;5.50;1.55;;;;;;;25.94;41.59;101543.56;7364768;19;20019;-62
2023/06/15 11:46:11;;;;;;;3.45;0.95;;;;;;;25.99;39.40;101537.47;7364918;19;20010;-62
2023/06/15 11:48:40;;;;;;;4.03;1.00;;;;;;;25.98;39.44;101542.03;7363745;19;20017;-62
2023/06/15 11:51:11;;;;;;;4.00;1.15;;;;;;;25.94;39.49;101531.97;7368690;19;20117;-63
2023/06/15 11:53:40;;;;;;;2.10;0.90;;;;;;;25.90;40.43;101538.91;7368385;19;20019;-61
2023/06/15 11:56:14;;;;;;;3.35;1.25;;;;;;;25.88;40.01;101530.22;7366377;19;21110;-61